SWR37J LOWW-LSZH
Flight info
| Callsign | SWR37J |
|---|---|
| Flight time | N/A |
| Altitude | 30000 |
| Route | SOVIL2B/16 SOVIL DCT SITNI DCT BAGSI DCT MATIG DCT TRAUN DCT KONIN L856 NEGRA |
| Aircraft | A320/M-SDE3FGHIRWY/LB1 |
Departure
| Time | 2026-05-04 19:43 |
|---|---|
| Airport | Vienna International Airport (LOWW) |
Arrival
| Time | N/A |
|---|---|
| Airport | Zürich Airport (LSZH) |
| Time | Latitude | Longitude | Altitude | Speed | Heading |
|---|---|---|---|---|---|
| 2026-05-04 18:47 | 48.11902 | 16.55761 | 609 ft | 0 kts | 348° |
| 2026-05-04 19:31 | 48.11891 | 16.55765 | 624 ft | 4 kts | 348° |
| 2026-05-04 19:31 | 48.11864 | 16.55773 | 618 ft | 4 kts | 349° |
| 2026-05-04 19:31 | 48.11838 | 16.55780 | 625 ft | 4 kts | 346° |
| 2026-05-04 19:31 | 48.11813 | 16.55793 | 625 ft | 4 kts | 327° |
| 2026-05-04 19:32 | 48.11795 | 16.55819 | 611 ft | 4 kts | 283° |
| 2026-05-04 19:32 | 48.11794 | 16.55836 | 621 ft | 0 kts | 258° |
| 2026-05-04 19:35 | 48.11791 | 16.55804 | 612 ft | 7 kts | 266° |
| 2026-05-04 19:35 | 48.11820 | 16.55681 | 618 ft | 16 kts | 298° |
| 2026-05-04 19:35 | 48.11789 | 16.55555 | 616 ft | 12 kts | 254° |
| 2026-05-04 19:35 | 48.11819 | 16.55401 | 622 ft | 20 kts | 296° |
| 2026-05-04 19:36 | 48.11893 | 16.55173 | 617 ft | 29 kts | 295° |
| 2026-05-04 19:36 | 48.11986 | 16.54887 | 614 ft | 31 kts | 296° |
| 2026-05-04 19:36 | 48.12084 | 16.54585 | 616 ft | 33 kts | 296° |
| 2026-05-04 19:36 | 48.12185 | 16.54282 | 622 ft | 30 kts | 295° |
| 2026-05-04 19:37 | 48.12224 | 16.54080 | 613 ft | 15 kts | 264° |
| 2026-05-04 19:37 | 48.12201 | 16.54014 | 620 ft | 0 kts | 226° |
| 2026-05-04 19:41 | 48.12186 | 16.53995 | 619 ft | 9 kts | 214° |
| 2026-05-04 19:41 | 48.12081 | 16.53991 | 615 ft | 18 kts | 159° |
| 2026-05-04 19:42 | 48.12053 | 16.54043 | 625 ft | 0 kts | 117° |
| 2026-05-04 19:42 | 48.12050 | 16.54050 | 625 ft | 5 kts | 117° |
| 2026-05-04 19:43 | 48.11928 | 16.54423 | 623 ft | 77 kts | 117° |
| 2026-05-04 19:43 | 48.11604 | 16.55415 | 611 ft | 135 kts | 116° |
| 2026-05-04 19:43 | 48.11131 | 16.56882 | 729 ft | 172 kts | 117° |
| 2026-05-04 19:43 | 48.10574 | 16.58578 | 1244 ft | 188 kts | 120° |
| 2026-05-04 19:44 | 48.10005 | 16.60353 | 2015 ft | 190 kts | 122° |
| 2026-05-04 19:44 | 48.09472 | 16.62158 | 2757 ft | 189 kts | 121° |
| 2026-05-04 19:44 | 48.08940 | 16.63951 | 3475 ft | 188 kts | 122° |
| 2026-05-04 19:44 | 48.08389 | 16.65726 | 4128 ft | 189 kts | 121° |
| 2026-05-04 19:45 | 48.07821 | 16.67547 | 4602 ft | 201 kts | 121° |
| 2026-05-04 19:45 | 48.07156 | 16.69465 | 4914 ft | 215 kts | 130° |
| 2026-05-04 19:45 | 48.06011 | 16.70821 | 4998 ft | 210 kts | 163° |
| 2026-05-04 19:45 | 48.04548 | 16.71064 | 5005 ft | 226 kts | 191° |
| 2026-05-04 19:46 | 48.02909 | 16.70510 | 5167 ft | 255 kts | 194° |
| 2026-05-04 19:46 | 48.01281 | 16.69935 | 5985 ft | 259 kts | 194° |
| 2026-05-04 19:46 | 48.00703 | 16.69732 | 6285 ft | 261 kts | 194° |
| 2026-05-04 19:46 | 48.00270 | 16.69580 | 6483 ft | 263 kts | 194° |
| 2026-05-04 19:47 | 47.99174 | 16.69202 | 7050 ft | 264 kts | 194° |
| 2026-05-04 19:47 | 47.97486 | 16.68522 | 7853 ft | 268 kts | 203° |
| 2026-05-04 19:47 | 47.95868 | 16.66957 | 8755 ft | 273 kts | 224° |
| 2026-05-04 19:47 | 47.94764 | 16.64640 | 9678 ft | 278 kts | 244° |
| 2026-05-04 19:48 | 47.94255 | 16.61815 | 10372 ft | 292 kts | 258° |
| 2026-05-04 19:48 | 47.93916 | 16.58700 | 10688 ft | 315 kts | 259° |
| 2026-05-04 19:48 | 47.93574 | 16.55405 | 11292 ft | 326 kts | 259° |
| 2026-05-04 19:48 | 47.93228 | 16.52040 | 12068 ft | 330 kts | 259° |
| 2026-05-04 19:49 | 47.92878 | 16.48642 | 12884 ft | 333 kts | 259° |
| 2026-05-04 19:49 | 47.92732 | 16.45167 | 13669 ft | 340 kts | 270° |
| 2026-05-04 19:49 | 47.93051 | 16.41647 | 14353 ft | 345 kts | 278° |
| 2026-05-04 19:49 | 47.93482 | 16.38105 | 15036 ft | 349 kts | 277° |
| 2026-05-04 19:50 | 47.93911 | 16.34530 | 15710 ft | 352 kts | 277° |
| 2026-05-04 19:50 | 47.94336 | 16.30916 | 16392 ft | 355 kts | 277° |
| 2026-05-04 19:50 | 47.94759 | 16.27267 | 17076 ft | 359 kts | 277° |
| 2026-05-04 19:50 | 47.95178 | 16.23632 | 17750 ft | 362 kts | 277° |
| 2026-05-04 19:51 | 47.95611 | 16.19867 | 18399 ft | 365 kts | 278° |
| 2026-05-04 19:51 | 47.96043 | 16.16119 | 18963 ft | 369 kts | 278° |
| 2026-05-04 19:51 | 47.96482 | 16.12334 | 19537 ft | 372 kts | 278° |
| 2026-05-04 19:51 | 47.96919 | 16.08573 | 20101 ft | 375 kts | 278° |
| 2026-05-04 19:52 | 47.97366 | 16.04730 | 20670 ft | 378 kts | 278° |
| 2026-05-04 19:52 | 47.97816 | 16.00843 | 21220 ft | 381 kts | 279° |
| 2026-05-04 19:52 | 47.98265 | 15.96937 | 21762 ft | 384 kts | 279° |
| 2026-05-04 19:52 | 47.98713 | 15.92995 | 22300 ft | 387 kts | 279° |
| 2026-05-04 19:53 | 47.99162 | 15.89019 | 22863 ft | 389 kts | 279° |
| 2026-05-04 19:53 | 47.99465 | 15.86318 | 23231 ft | 391 kts | 279° |
| 2026-05-04 19:53 | 48.00066 | 15.81003 | 23872 ft | 394 kts | 279° |
| 2026-05-04 19:53 | 48.00525 | 15.76954 | 24288 ft | 397 kts | 279° |
| 2026-05-04 19:54 | 48.00982 | 15.72878 | 24738 ft | 399 kts | 279° |
| 2026-05-04 19:54 | 48.01440 | 15.68783 | 25152 ft | 401 kts | 279° |
| 2026-05-04 19:54 | 48.01898 | 15.64665 | 25581 ft | 403 kts | 279° |
| 2026-05-04 19:54 | 48.02204 | 15.61925 | 25852 ft | 405 kts | 279° |
| 2026-05-04 19:55 | 48.02665 | 15.57761 | 26253 ft | 407 kts | 279° |
| 2026-05-04 19:55 | 48.03126 | 15.53569 | 26646 ft | 410 kts | 279° |
| 2026-05-04 19:55 | 48.03586 | 15.49381 | 27024 ft | 413 kts | 279° |
| 2026-05-04 19:55 | 48.04021 | 15.45096 | 27458 ft | 415 kts | 277° |
| 2026-05-04 19:56 | 48.04410 | 15.40817 | 27859 ft | 417 kts | 277° |
| 2026-05-04 19:56 | 48.04701 | 15.36503 | 28237 ft | 419 kts | 271° |
| 2026-05-04 19:56 | 48.04739 | 15.32144 | 28650 ft | 420 kts | 270° |
| 2026-05-04 19:56 | 48.04786 | 15.27766 | 29033 ft | 422 kts | 270° |
| 2026-05-04 19:57 | 48.04848 | 15.23372 | 29434 ft | 424 kts | 271° |
| 2026-05-04 19:57 | 48.04919 | 15.18963 | 29815 ft | 425 kts | 271° |
| 2026-05-04 19:57 | 48.04993 | 15.14558 | 29919 ft | 420 kts | 271° |
| 2026-05-04 19:57 | 48.05064 | 15.10292 | 29917 ft | 404 kts | 271° |
| 2026-05-04 19:58 | 48.05132 | 15.06115 | 29914 ft | 399 kts | 271° |
| 2026-05-04 19:58 | 48.05249 | 14.97843 | 29917 ft | 398 kts | 270° |
| 2026-05-04 19:59 | 48.05352 | 14.89559 | 29909 ft | 399 kts | 270° |
| 2026-05-04 19:59 | 48.05444 | 14.81272 | 29909 ft | 399 kts | 270° |
| 2026-05-04 20:00 | 48.05520 | 14.72982 | 29899 ft | 399 kts | 270° |
| 2026-05-04 20:00 | 48.05579 | 14.64704 | 29897 ft | 398 kts | 270° |
| 2026-05-04 20:01 | 48.05633 | 14.56425 | 29900 ft | 398 kts | 269° |
| 2026-05-04 20:01 | 48.05683 | 14.48174 | 29913 ft | 397 kts | 269° |
| 2026-05-04 20:02 | 48.05731 | 14.39935 | 29915 ft | 396 kts | 269° |
| 2026-05-04 20:02 | 48.05772 | 14.31714 | 29913 ft | 395 kts | 269° |
| 2026-05-04 20:03 | 48.05802 | 14.23497 | 29908 ft | 395 kts | 269° |
| 2026-05-04 20:03 | 48.05828 | 14.15283 | 29912 ft | 395 kts | 268° |
| 2026-05-04 20:04 | 48.05856 | 14.07065 | 29892 ft | 396 kts | 268° |
| 2026-05-04 20:04 | 48.05875 | 13.98836 | 29877 ft | 396 kts | 268° |
| 2026-05-04 20:05 | 48.05890 | 13.90653 | 29881 ft | 396 kts | 268° |
| 2026-05-04 20:05 | 48.05897 | 13.82410 | 29870 ft | 397 kts | 268° |
| 2026-05-04 20:06 | 48.05896 | 13.74170 | 29873 ft | 397 kts | 268° |
| 2026-05-04 20:06 | 48.05887 | 13.65916 | 29876 ft | 397 kts | 268° |
| 2026-05-04 20:07 | 48.05861 | 13.57657 | 29873 ft | 397 kts | 268° |